DW8790 Maspalomas ES current weather conditions

sailwx.info

Wind from 033 at 0 knots gusting 2

Air temperature 15.6° C
Dewpoint 9.7° C

Last reported at 2017-Dec-18 03:05 UTC.
Time now 2017-Dec-18 03:27 UTC

Location: N 27°46' W 015°34'.
View on Google Maps.

See reports from other nearby stations

  
Tides and Currents Weather Stations Pressure Air Temp Water Temp Dewpoint Dewpoint Depression Visibility Wind Speed Wind Dir Waves Ship Positions
date/time (UTC)wind fromknots sea level pressurealtimeterstation pressurevisibilityair tempwater tempwave heightnotes
2017-Dec-18 03:10 012 0 gusting 2 15.6
2017-Dec-18 03:05 033 0 gusting 2 15.6
2017-Dec-18 03:00 355 0 gusting 2 15.6
2017-Dec-18 02:55 010 0 gusting 1 15.6
2017-Dec-18 02:50 005 1 gusting 4 15.6
2017-Dec-18 02:45 029 2 gusting 5 15.6
2017-Dec-18 02:40 320 15.6
2017-Dec-18 02:35 328 0 gusting 2 15.6
2017-Dec-18 02:30 293 0 gusting 1 15.6
2017-Dec-18 02:25 293 1 gusting 2 15.6
2017-Dec-18 02:20 020 15.6
2017-Dec-18 02:15 050 1 gusting 4 15.6
2017-Dec-18 02:10 346 16.1
2017-Dec-18 02:05 346 16.1
2017-Dec-18 02:00 359 0 gusting 2 16.1
2017-Dec-18 01:55 043 0 gusting 4 16.1
2017-Dec-18 01:50 358 0 gusting 6 15.6
2017-Dec-18 01:45 358 1 gusting 5 15.6
2017-Dec-18 01:40 345 0 gusting 2 15.6
2017-Dec-18 01:35 357 0 gusting 5 15.6
2017-Dec-18 01:30 321 0 gusting 2 15.6
2017-Dec-18 01:25 332 1 gusting 2 15.6
2017-Dec-18 01:20 335 1 gusting 6 15.6
2017-Dec-18 01:15 255 2 gusting 2 15.6
2017-Dec-18 01:10 312 2 gusting 5 16.1
2017-Dec-18 01:05 294 0 gusting 2 16.7
2017-Dec-18 01:00 302 1 gusting 2 16.7
2017-Dec-18 00:55 055 16.7
2017-Dec-18 00:50 034 1 gusting 2 16.7
2017-Dec-18 00:45 030 0 gusting 4 16.7
2017-Dec-18 00:40 031 1 gusting 5 16.7
2017-Dec-18 00:35 035 2 gusting 6 16.7
2017-Dec-18 00:30 037 1 gusting 4 16.7
2017-Dec-18 00:25 007 0 gusting 4 17.2
2017-Dec-18 00:20 017 2 gusting 8 17.2
2017-Dec-18 00:15 025 5 gusting 12 17.8
2017-Dec-18 00:10 041 5 gusting 11 17.8
2017-Dec-18 00:05 023 5 gusting 11 17.8
2017-Dec-18 00:00 033 2 gusting 8 17.2
2017-Dec-17 23:55 030 0 gusting 2 17.2
2017-Dec-17 23:50 034 0 gusting 6 17.2
2017-Dec-17 23:45 035 3 gusting 6 17.2
2017-Dec-17 23:40 026 5 gusting 10 17.2
2017-Dec-17 23:35 039 5 gusting 13 17.2
2017-Dec-17 23:30 032 6 gusting 13 17.2
2017-Dec-17 23:25 026 5 gusting 12 17.2
2017-Dec-17 23:20 035 6 gusting 13 17.2
2017-Dec-17 23:15 034 6 gusting 11 17.2
2017-Dec-17 23:10 016 9 gusting 14 17.2
2017-Dec-17 23:05 041 10 gusting 18 17.2
2017-Dec-17 23:00 049 11 gusting 15 17.2
2017-Dec-17 22:55 040 8 gusting 14 17.2
2017-Dec-17 22:50 023 6 gusting 12 17.2
2017-Dec-17 22:45 021 8 gusting 13 17.2
2017-Dec-17 22:40 042 7 gusting 15 17.2
2017-Dec-17 22:35 052 6 gusting 12 17.2
2017-Dec-17 22:30 046 7 gusting 13 17.2
2017-Dec-17 22:25 031 7 gusting 12 17.2
2017-Dec-17 19:15 036 6 gusting 13 17.8
2017-Dec-17 19:10 026 7 gusting 19 17.8
2017-Dec-17 19:05 026 7 gusting 17 17.8
2017-Dec-17 19:00 040 7 gusting 17 17.8
2017-Dec-17 18:55 047 9 gusting 17 17.8
2017-Dec-17 18:50 054 12 gusting 17 17.8
2017-Dec-17 18:45 018 10 gusting 17 17.8
2017-Dec-17 18:40 057 8 gusting 18 17.8
2017-Dec-17 18:35 057 5 gusting 15 18.3
2017-Dec-17 18:30 057 10 gusting 15 18.3
2017-Dec-17 18:25 035 4 gusting 10 18.9
2017-Dec-17 18:20 036 6 gusting 15 18.9
2017-Dec-17 18:15 044 8 gusting 17 18.9
2017-Dec-17 18:10 033 10 gusting 21 18.9
2017-Dec-17 18:05 034 12 gusting 26 18.9
2017-Dec-17 18:00 047 10 gusting 17 18.3
2017-Dec-17 17:55 041 4 gusting 12 18.9
2017-Dec-17 17:50 053 8 gusting 17 18.9
2017-Dec-17 17:45 051 7 gusting 13 18.9
2017-Dec-17 17:40 035 7 gusting 19 18.9
2017-Dec-17 17:35 038 9 gusting 17 18.9
2017-Dec-17 17:30 037 8 gusting 13 18.9
2017-Dec-17 17:25 050 10 gusting 17 18.9
2017-Dec-17 17:20 058 7 gusting 13 18.9
2017-Dec-17 17:15 067 10 gusting 14 18.9
2017-Dec-17 17:10 050 10 gusting 17 18.9
2017-Dec-17 17:05 064 8 gusting 19 18.9
2017-Dec-17 17:00 053 10 gusting 17 18.9
2017-Dec-17 16:55 077 9 gusting 20 18.9
2017-Dec-17 16:50 040 10 gusting 18 19.4
2017-Dec-17 16:45 058 11 gusting 17 20.0
2017-Dec-17 16:40 064 6 gusting 12 21.1
2017-Dec-17 16:35 051 8 gusting 19 21.1
2017-Dec-17 16:30 047 6 gusting 15 21.1
2017-Dec-17 16:25 036 8 gusting 15 20.6
2017-Dec-17 16:20 044 6 gusting 12 20.6
2017-Dec-17 16:15 045 4 gusting 12 20.6
2017-Dec-17 16:10 027 8 gusting 13 20.0
2017-Dec-17 16:05 068 8 gusting 13 20.0
2017-Dec-17 16:00 060 10 gusting 18 20.0
2017-Dec-17 15:55 050 10 gusting 19 20.0
2017-Dec-17 15:50 043 5 gusting 13 20.0
2017-Dec-17 15:45 048 6 gusting 13 20.0
2017-Dec-17 15:40 043 6 gusting 13 20.0
2017-Dec-17 15:35 051 7 gusting 17 20.0
2017-Dec-17 15:30 076 8 gusting 17 20.0
2017-Dec-17 15:20 071 8 gusting 13 20.6
2017-Dec-17 15:15 073 7 gusting 13 20.6
2017-Dec-17 15:10 060 8 gusting 13 21.1
2017-Dec-17 15:05 042 5 gusting 12 20.6
2017-Dec-17 15:00 006 4 gusting 17 20.6
2017-Dec-17 14:55 055 8 gusting 14 20.6
2017-Dec-17 14:50 075 6 gusting 12 21.1
2017-Dec-17 14:45 084 5 gusting 10 21.1
2017-Dec-17 14:40 014 1 gusting 4 21.1
2017-Dec-17 14:35 264 4 gusting 7 21.1
2017-Dec-17 14:30 123 1 gusting 13 20.6
2017-Dec-17 14:25 037 5 gusting 18 20.6
2017-Dec-17 14:20 359 4 gusting 10 21.1
2017-Dec-17 14:15 149 2 gusting 6 21.1
2017-Dec-17 14:10 008 2 gusting 6 20.6
2017-Dec-17 14:05 220 5 gusting 10 21.1
2017-Dec-17 14:00 100 4 gusting 10 21.1
2017-Dec-17 13:55 228 1 gusting 5 21.1
2017-Dec-17 13:50 334 0 gusting 4 20.6
2017-Dec-17 13:45 031 5 gusting 10 20.6
2017-Dec-17 13:40 057 7 gusting 15 20.6
2017-Dec-17 13:35 125 3 gusting 6 20.6
2017-Dec-17 13:30 269 2 gusting 6 20.6
2017-Dec-17 13:25 266 5 gusting 11 20.6
2017-Dec-17 13:20 257 5 gusting 11 21.1
2017-Dec-17 13:15 092 5 gusting 11 20.6
2017-Dec-17 13:10 049 5 gusting 15 20.6
2017-Dec-17 13:05 031 6 gusting 13 20.6
2017-Dec-17 13:00 059 8 gusting 13 20.6
2017-Dec-17 12:55 108 6 gusting 17 20.6
2017-Dec-17 12:50 066 8 gusting 15 21.1
2017-Dec-17 12:45 056 7 gusting 14 21.1
2017-Dec-17 12:40 060 7 gusting 13 22.2
2017-Dec-17 12:35 071 6 gusting 17 21.7
2017-Dec-17 12:30 037 6 gusting 17 21.7
2017-Dec-17 12:25 042 8 gusting 19 21.1
2017-Dec-17 12:20 054 9 gusting 19 21.1
2017-Dec-17 12:15 056 10 gusting 17 21.1
2017-Dec-17 12:10 076 8 gusting 13 21.1
2017-Dec-17 12:05 078 7 gusting 14 21.1
2017-Dec-17 12:00 029 9 gusting 19 21.7
2017-Dec-17 11:55 052 8 gusting 15 21.7
2017-Dec-17 11:50 051 6 gusting 19 21.1
2017-Dec-17 11:45 040 8 gusting 17 21.1
2017-Dec-17 11:40 072 11 gusting 19 21.1
2017-Dec-17 11:35 037 10 gusting 19 21.1
2017-Dec-17 11:30 041 7 gusting 14 21.1
2017-Dec-17 11:25 087 6 gusting 14 21.1
2017-Dec-17 11:20 055 8 gusting 22 20.6
2017-Dec-17 11:15 050 8 gusting 17 20.6
2017-Dec-17 11:10 050 6 gusting 14 20.6
2017-Dec-17 11:05 035 10 gusting 15 20.6
2017-Dec-17 11:00 045 9 gusting 17 20.6
2017-Dec-17 10:55 043 10 gusting 20 20.6
2017-Dec-17 10:50 071 10 gusting 17 20.6
2017-Dec-17 10:45 078 9 gusting 17 20.6
2017-Dec-17 10:40 044 9 gusting 18 20.0
2017-Dec-17 10:35 074 8 gusting 19 20.6
2017-Dec-17 10:30 067 9 gusting 19 20.6
2017-Dec-17 10:25 058 7 gusting 14 20.0
2017-Dec-17 10:20 081 6 gusting 14 20.0
2017-Dec-17 10:15 074 7 gusting 14 20.0
2017-Dec-17 10:10 080 7 gusting 15 19.4
2017-Dec-17 10:05 073 7 gusting 15 19.4
2017-Dec-17 10:00 084 11 gusting 17 19.4
2017-Dec-17 09:55 081 7 gusting 13 20.0
2017-Dec-17 09:50 061 7 gusting 15 20.0
2017-Dec-17 09:45 053 6 gusting 17 20.0
2017-Dec-17 09:40 078 7 gusting 17 20.0
2017-Dec-17 09:35 051 6 gusting 13 20.0
2017-Dec-17 09:30 068 4 gusting 8 19.4
2017-Dec-17 09:25 051 5 gusting 8 19.4
2017-Dec-17 09:20 060 3 gusting 8 19.4
2017-Dec-17 09:15 043 4 gusting 11 19.4
2017-Dec-17 09:10 037 5 gusting 11 19.4
2017-Dec-17 09:05 062 4 gusting 10 18.9
2017-Dec-17 09:00 066 6 gusting 12 18.9
2017-Dec-17 08:55 074 5 gusting 10 18.9
2017-Dec-17 08:50 082 5 gusting 10 18.3
2017-Dec-17 08:45 083 7 gusting 13 18.3
2017-Dec-17 08:40 081 7 gusting 11 18.3
2017-Dec-17 08:35 067 5 gusting 8 18.3
2017-Dec-17 08:30 072 6 gusting 10 17.8
2017-Dec-17 08:25 078 8 gusting 13 17.8
2017-Dec-17 08:20 075 6 gusting 13 17.8
2017-Dec-17 08:15 075 6 gusting 12 17.8
2017-Dec-17 08:10 074 5 gusting 8 17.8
2017-Dec-17 08:05 051 6 gusting 10 17.8
2017-Dec-17 08:00 078 5 gusting 11 17.8
2017-Dec-17 07:55 077 6 gusting 11 17.8
2017-Dec-17 07:50 072 4 gusting 7 17.8
2017-Dec-17 07:45 112 4 gusting 10 17.8
2017-Dec-17 07:40 086 5 gusting 10 17.8
2017-Dec-17 07:35 065 6 gusting 12 17.8
2017-Dec-17 07:30 076 4 gusting 7 17.8
2017-Dec-17 07:25 038 1 gusting 10 17.8
2017-Dec-17 07:20 050 3 gusting 7 17.8
2017-Dec-17 07:15 057 6 gusting 10 17.8
2017-Dec-17 07:10 070 3 gusting 8 17.8
2017-Dec-17 07:05 055 4 gusting 11 17.8
2017-Dec-17 07:00 063 6 gusting 12 17.8
2017-Dec-17 06:55 045 6 gusting 11 17.8
2017-Dec-17 06:50 044 6 gusting 12 17.8
2017-Dec-17 06:45 046 7 gusting 14 17.8
2017-Dec-17 06:40 052 7 gusting 14 17.8
2017-Dec-17 06:35 065 6 gusting 15 17.8
2017-Dec-17 06:30 073 7 gusting 13 17.8
2017-Dec-17 06:25 056 4 gusting 13 17.8
2017-Dec-17 06:20 061 4 gusting 10 17.8
2017-Dec-17 06:15 088 1 gusting 6 18.3
2017-Dec-17 06:10 087 6 gusting 13 18.3
2017-Dec-17 06:05 088 4 gusting 13 18.9
2017-Dec-17 06:00 049 1 gusting 5 18.9
2017-Dec-17 05:55 325 4 gusting 10 18.9
2017-Dec-17 05:50 058 2 gusting 8 18.9
2017-Dec-17 05:45 039 3 gusting 8 18.9
2017-Dec-17 05:40 044 2 gusting 10 18.9
2017-Dec-17 05:35 039 4 gusting 7 18.3
2017-Dec-17 05:30 063 4 gusting 7 18.3
2017-Dec-17 05:25 028 1 gusting 2 17.8
2017-Dec-17 05:20 042 1 gusting 2 18.3
2017-Dec-17 05:15 041 1 gusting 2 18.3
2017-Dec-17 05:10 038 1 gusting 2 17.8
2017-Dec-17 05:05 037 0 gusting 2 17.8
2017-Dec-17 05:00 033 17.8
2017-Dec-17 04:55 024 17.8
2017-Dec-17 04:50 024 17.8
2017-Dec-17 04:45 024 17.8
2017-Dec-17 04:40 024 17.8
2017-Dec-17 04:35 024 17.8
2017-Dec-17 04:30 024 17.8
2017-Dec-17 04:25 024 17.8
2017-Dec-17 04:20 024 17.8
2017-Dec-17 04:15 024 17.8
2017-Dec-17 04:10 024 17.8
2017-Dec-17 04:05 024 17.8
2017-Dec-17 04:00 024 17.8
2017-Dec-17 03:55 024 17.8
2017-Dec-17 03:50 024 17.8
2017-Dec-17 03:45 024 17.8
2017-Dec-17 03:40 024 1 gusting 2 17.8
2017-Dec-17 03:35 051 1 gusting 4 17.8
2017-Dec-17 03:30 039 0 gusting 2 17.8
2017-Dec-17 03:20 041 1 gusting 2 17.8
2017-Dec-17 03:15 067 0 gusting 1 17.8
2017-Dec-17 03:10 292 17.8
2017-Dec-17 03:05 292 0 gusting 1 18.3
2017-Dec-17 03:00 292 0 gusting 1 17.8
2017-Dec-17 02:55 039 17.8
2017-Dec-17 02:50 039 17.8
2017-Dec-17 02:45 039 1 gusting 2 17.8
2017-Dec-17 02:40 035 2 gusting 2 17.8
2017-Dec-17 02:35 061 0 gusting 2 17.8
2017-Dec-17 02:30 021 17.8
2017-Dec-17 02:25 304 0 gusting 2 17.8
2017-Dec-17 02:20 034 17.8
2017-Dec-17 02:15 034 17.8
2017-Dec-17 02:10 034 0 gusting 2 17.8
2017-Dec-17 02:05 344 1 gusting 2 17.8
2017-Dec-17 02:00 323 17.8
2017-Dec-17 01:55 355 17.8
2017-Dec-17 01:50 355 17.8
2017-Dec-17 01:45 355 17.8
2017-Dec-17 01:40 355 17.8
2017-Dec-17 01:35 321 1 gusting 2 17.8
2017-Dec-17 01:30 330 0 gusting 2 17.8
2017-Dec-17 01:25 336 0 gusting 2 17.8
2017-Dec-17 01:20 350 0 gusting 2 17.8
2017-Dec-17 01:15 005 0 gusting 2 17.8
2017-Dec-17 01:10 346 0 gusting 1 17.8
2017-Dec-17 01:05 307 0 gusting 2 17.8
2017-Dec-17 01:00 307 2 gusting 4 17.8
2017-Dec-17 00:55 309 2 gusting 4 17.8
2017-Dec-17 00:50 280 0 gusting 2 17.8
2017-Dec-17 00:45 243 1 gusting 2 17.8
2017-Dec-17 00:40 243 0 gusting 1 17.8
2017-Dec-17 00:35 243 0 gusting 1 17.8
2017-Dec-17 00:30 243 0 gusting 1 18.3
2017-Dec-17 00:25 243 18.3
2017-Dec-17 00:20 243 18.3
2017-Dec-17 00:15 243 18.3
2017-Dec-17 00:10 243 18.3
2017-Dec-17 00:05 243 18.3
2017-Dec-17 00:00 243 18.3
2017-Dec-16 23:55 243 18.3
2017-Dec-16 23:50 243 1 gusting 2 18.3
2017-Dec-16 23:45 243 18.3
2017-Dec-16 23:40 243 18.3
2017-Dec-16 23:35 243 18.3
2017-Dec-16 23:30 243 18.3
2017-Dec-16 23:25 243 18.3
2017-Dec-16 23:20 243 0 gusting 1 18.3
2017-Dec-16 23:15 243 18.3
2017-Dec-16 23:10 243 0 gusting 1 18.3
2017-Dec-16 23:05 243 18.3
2017-Dec-16 23:00 243 18.3
2017-Dec-16 22:55 243 18.3
2017-Dec-16 22:50 243 0 gusting 1 18.3
2017-Dec-16 22:45 243 18.3
2017-Dec-16 22:40 243 18.3
2017-Dec-16 22:35 243 18.3
2017-Dec-16 22:30 243 18.3
2017-Dec-16 22:25 243 18.3
2017-Dec-16 22:20 243 18.3
2017-Dec-16 22:15 243 0 gusting 1 18.3
2017-Dec-16 22:10 243 18.3
2017-Dec-16 22:05 243 0 gusting 1 18.3
2017-Dec-16 22:00 243 18.3
2017-Dec-16 21:55 243 0 gusting 1 18.3
2017-Dec-16 21:50 243 0 gusting 2 18.3
2017-Dec-16 21:45 243 18.3
2017-Dec-16 21:40 243 18.3
2017-Dec-16 21:35 243 18.3
2017-Dec-16 21:30 243 18.3
2017-Dec-16 21:25 243 18.3
2017-Dec-16 21:20 243 18.3
2017-Dec-16 21:15 243 18.3
2017-Dec-16 21:10 243 18.3
2017-Dec-16 21:05 243 18.9
2017-Dec-16 21:00 243 18.9
2017-Dec-16 20:55 243 18.9
2017-Dec-16 20:50 243 18.9
2017-Dec-16 20:45 243 18.9
2017-Dec-16 20:40 243 18.9
2017-Dec-16 20:35 243 18.9
2017-Dec-16 20:30 243 18.9
2017-Dec-16 20:25 243 18.9
2017-Dec-16 20:20 243 18.9
2017-Dec-16 20:15 243 18.9
2017-Dec-16 20:10 243 18.9
2017-Dec-16 20:05 243 18.9
2017-Dec-16 20:00 243 18.9
2017-Dec-16 19:55 243 18.9
2017-Dec-16 19:50 243 18.9
2017-Dec-16 19:45 243 18.9
2017-Dec-16 19:40 243 18.9
2017-Dec-16 19:35 243 18.9
2017-Dec-16 19:30 243 18.9
2017-Dec-16 19:25 243 18.9
2017-Dec-16 19:20 243 19.4
2017-Dec-16 19:15 243 1 gusting 2 19.4
2017-Dec-16 19:10 243 0 gusting 2 19.4
2017-Dec-16 19:05 243 0 gusting 2 19.4
2017-Dec-16 19:00 243 0 gusting 2 19.4
2017-Dec-16 18:55 243 0 gusting 2 19.4
2017-Dec-16 18:50 243 0 gusting 2 19.4
2017-Dec-16 18:45 243 1 gusting 2 19.4
2017-Dec-16 18:40 243 1 gusting 2 19.4
2017-Dec-16 18:35 249 1 gusting 4 19.4
2017-Dec-16 18:30 237 2 gusting 4 19.4
2017-Dec-16 18:25 254 2 gusting 5 20.0
2017-Dec-16 18:20 249 2 gusting 6 20.0
2017-Dec-16 18:15 225 2 gusting 5 20.0
2017-Dec-16 18:10 219 2 gusting 5 20.0
2017-Dec-16 18:05 214 3 gusting 6 20.6
2017-Dec-16 18:00 216 1 gusting 4 20.6
2017-Dec-16 17:55 220 4 gusting 6 20.6
2017-Dec-16 17:50 229 3 gusting 6 21.1
2017-Dec-16 17:45 208 2 gusting 7 20.6
2017-Dec-16 17:40 197 2 gusting 7 21.1
2017-Dec-16 17:35 210 2 gusting 6 21.1
2017-Dec-16 17:30 200 2 gusting 5 21.1
2017-Dec-16 17:25 180 2 gusting 5 21.7
2017-Dec-16 17:20 197 2 gusting 6 21.7
2017-Dec-16 17:15 193 1 gusting 4 22.2
2017-Dec-16 17:10 224 1 gusting 2 22.8
2017-Dec-16 17:05 207 1 gusting 2 22.8
2017-Dec-16 17:00 148 1 gusting 2 22.8
2017-Dec-16 16:55 238 0 gusting 1 22.8
2017-Dec-16 16:50 238 22.8
2017-Dec-16 16:45 238 0 gusting 1 22.2
2017-Dec-16 16:40 238 0 gusting 1 21.7
2017-Dec-16 16:35 322 2 gusting 4 21.7
2017-Dec-16 16:30 008 0 gusting 2 21.7
2017-Dec-16 16:25 250 0 gusting 2 21.1
2017-Dec-16 16:20 217 1 gusting 4 20.6
2017-Dec-16 16:15 186 1 gusting 2 20.6
2017-Dec-16 16:10 199 1 gusting 2 20.6
2017-Dec-16 16:05 144 0 gusting 2 21.1
2017-Dec-16 16:00 118 1 gusting 5 21.1
2017-Dec-16 15:55 129 3 gusting 6 21.1
2017-Dec-16 15:50 101 0 gusting 5 21.1
2017-Dec-16 15:45 075 1 gusting 5 21.1
2017-Dec-16 15:40 108 2 gusting 4 21.1
2017-Dec-16 15:35 125 1 gusting 4 21.1
2017-Dec-16 15:30 157 2 gusting 4 21.1
2017-Dec-16 15:20 136 2 gusting 5 21.7
2017-Dec-16 15:15 151 2 gusting 6 21.7
2017-Dec-16 15:10 129 2 gusting 4 21.7
2017-Dec-16 15:05 116 0 gusting 4 21.7
2017-Dec-16 15:00 084 1 gusting 4 21.7
2017-Dec-16 14:55 144 3 gusting 6 21.7
2017-Dec-16 14:50 183 2 gusting 6 21.7
2017-Dec-16 14:45 159 2 gusting 6 21.7
2017-Dec-16 14:40 163 2 gusting 6 21.7
2017-Dec-16 14:35 216 2 gusting 6 21.7
2017-Dec-16 14:30 177 3 gusting 6 22.2
2017-Dec-16 14:25 209 2 gusting 6 22.2
2017-Dec-16 14:20 190 3 gusting 6 22.2
2017-Dec-16 14:15 204 2 gusting 5 22.2
2017-Dec-16 14:10 209 3 gusting 6 22.2
2017-Dec-16 14:05 234 5 gusting 8 22.2
2017-Dec-16 14:00 227 2 gusting 6 22.2
2017-Dec-16 13:55 199 2 gusting 6 22.2
2017-Dec-16 13:50 193 4 gusting 8 21.7
2017-Dec-16 13:45 200 4 gusting 7 21.7
2017-Dec-16 13:40 180 2 gusting 7 21.7
2017-Dec-16 13:35 231 2 gusting 6 21.7
2017-Dec-16 13:30 200 4 gusting 6 21.1
2017-Dec-16 13:25 187 4 gusting 6 21.1
2017-Dec-16 13:20 209 3 gusting 6 21.1
2017-Dec-16 13:15 234 4 gusting 6 20.6
2017-Dec-16 13:10 210 4 gusting 6 20.6
2017-Dec-16 13:05 213 4 gusting 6 20.6
2017-Dec-16 13:00 207 1 gusting 4 20.6
2017-Dec-16 12:55 232 3 gusting 6 20.6
2017-Dec-16 12:50 217 3 gusting 6 20.6
2017-Dec-16 12:45 239 6 gusting 8 21.1
2017-Dec-16 12:40 242 6 gusting 7 21.1
2017-Dec-16 12:35 189 4 gusting 6 21.1
2017-Dec-16 12:30 233 5 gusting 6 20.6
2017-Dec-16 12:25 182 3 gusting 8 20.6
2017-Dec-16 12:20 231 4 gusting 7 20.6
2017-Dec-16 12:15 231 5 gusting 7 20.6
2017-Dec-16 12:10 193 3 gusting 7 21.1
2017-Dec-16 12:05 222 4 gusting 6 21.1
2017-Dec-16 12:00 218 4 gusting 7 21.1
2017-Dec-16 11:55 231 4 gusting 7 21.1
2017-Dec-16 11:50 213 5 gusting 10 20.6
2017-Dec-16 11:45 212 4 gusting 7 20.6
2017-Dec-16 11:40 210 3 gusting 6 20.6
2017-Dec-16 11:35 192 4 gusting 6 20.6
2017-Dec-16 11:30 245 4 gusting 6 20.6
2017-Dec-16 11:25 242 4 gusting 10 20.6
2017-Dec-16 11:20 237 5 gusting 8 20.6
2017-Dec-16 11:15 235 6 gusting 7 20.6
2017-Dec-16 11:10 222 5 gusting 10 20.6
2017-Dec-16 11:05 211 5 gusting 7 20.6
2017-Dec-16 11:00 234 4 gusting 7 20.6
2017-Dec-16 10:55 210 2 gusting 6 20.6
2017-Dec-16 10:50 224 3 gusting 6 20.0
2017-Dec-16 10:45 220 4 gusting 6 20.6
2017-Dec-16 10:40 221 4 gusting 6 20.0
2017-Dec-16 10:35 233 4 gusting 7 20.6
2017-Dec-16 10:30 251 2 gusting 5 20.6
2017-Dec-16 10:25 258 2 gusting 4 20.0
2017-Dec-16 10:20 257 1 gusting 2 20.6
2017-Dec-16 10:15 267 2 gusting 2 20.6
2017-Dec-16 10:10 268 0 gusting 2 20.0
2017-Dec-16 10:05 261 1 gusting 2 20.0
2017-Dec-16 10:00 252 1 gusting 2 20.0
2017-Dec-16 09:55 291 0 gusting 2 20.0
2017-Dec-16 09:50 291 0 gusting 2 20.0
2017-Dec-16 09:45 291 0 gusting 1 20.0
2017-Dec-16 09:40 291 0 gusting 2 20.0
2017-Dec-16 09:35 322 19.4
2017-Dec-16 09:30 322 0 gusting 1 19.4
2017-Dec-16 09:25 322 0 gusting 1 19.4
2017-Dec-16 09:20 322 0 gusting 2 18.9
2017-Dec-16 09:15 322 1 gusting 2 18.9
2017-Dec-16 09:10 322 0 gusting 1 18.3
2017-Dec-16 09:05 322 0 gusting 2 18.3
2017-Dec-16 09:00 329 1 gusting 2 17.8
2017-Dec-16 08:55 302 0 gusting 2 17.8
2017-Dec-16 08:50 284 1 gusting 2 17.8
2017-Dec-16 08:45 284 0 gusting 1 17.2
2017-Dec-16 08:40 284 0 gusting 2 17.2
2017-Dec-16 08:35 284 1 gusting 2 17.2
2017-Dec-16 08:30 284 0 gusting 2 16.7
2017-Dec-16 08:25 284 16.7
2017-Dec-16 08:20 284 0 gusting 2 16.7
2017-Dec-16 08:15 284 0 gusting 2 16.7
2017-Dec-16 08:10 284 1 gusting 2 16.1
2017-Dec-16 08:05 284 0 gusting 2 16.1
2017-Dec-16 08:00 284 1 gusting 2 16.1
2017-Dec-16 07:55 284 0 gusting 2 16.1
2017-Dec-16 07:50 284 2 gusting 2 16.1
2017-Dec-16 07:45 284 0 gusting 2 16.1
2017-Dec-16 07:40 284 16.1
2017-Dec-16 07:35 284 0 gusting 2 16.1
2017-Dec-16 07:30 284 0 gusting 2 16.1
2017-Dec-16 07:25 284 1 gusting 2 16.1
2017-Dec-16 07:20 284 1 gusting 2 16.1
2017-Dec-16 07:15 284 0 gusting 1 16.1
2017-Dec-16 07:10 284 0 gusting 2 16.7
2017-Dec-16 07:05 284 16.7
2017-Dec-16 07:00 284 0 gusting 1 16.7
2017-Dec-16 06:55 284 16.7
2017-Dec-16 06:50 284 16.7
2017-Dec-16 06:45 284 16.7
2017-Dec-16 06:40 284 16.7
2017-Dec-16 06:35 284 16.7
2017-Dec-16 06:30 284 0 gusting 2 16.7
2017-Dec-16 06:25 284 0 gusting 2 16.7
2017-Dec-16 06:20 326 0 gusting 2 16.7
2017-Dec-16 06:15 340 0 gusting 2 16.7
2017-Dec-16 06:10 340 0 gusting 2 16.7
2017-Dec-16 06:05 340 0 gusting 2 16.7
2017-Dec-16 06:00 340 0 gusting 2 16.7
2017-Dec-16 05:55 336 1 gusting 2 16.7
2017-Dec-16 05:50 323 0 gusting 1 16.7
2017-Dec-16 05:45 335 0 gusting 2 17.2
2017-Dec-16 05:40 322 0 gusting 2 17.2
2017-Dec-16 05:35 322 0 gusting 2 17.2
2017-Dec-16 05:30 003 1 gusting 2 17.2
2017-Dec-16 05:25 335 0 gusting 2 17.2
2017-Dec-16 05:20 338 1 gusting 2 17.2
2017-Dec-16 05:15 348 0 gusting 2 17.2
2017-Dec-16 05:10 009 1 gusting 2 17.2
2017-Dec-16 05:05 335 0 gusting 2 17.2
2017-Dec-16 05:00 334 1 gusting 2 17.2
2017-Dec-16 04:55 324 0 gusting 2 17.2
2017-Dec-16 04:50 345 0 gusting 2 17.2
2017-Dec-16 04:45 17.2
2017-Dec-16 04:40 319 17.2
2017-Dec-16 04:35 342 0 gusting 2 17.2
2017-Dec-16 04:30 342 17.2
2017-Dec-16 04:25 340 0 gusting 2 17.2
2017-Dec-16 04:20 332 1 gusting 2 17.2
2017-Dec-16 04:15 304 17.2
2017-Dec-16 04:10 304 17.2
2017-Dec-16 04:05 304 1 gusting 2 17.2
2017-Dec-16 04:00 304 0 gusting 1 17.2
2017-Dec-16 03:55 304 1 gusting 2 17.2
2017-Dec-16 03:50 304 0 gusting 2 17.2
2017-Dec-16 03:45 335 0 gusting 1 17.2
2017-Dec-16 03:40 312 1 gusting 2 17.2
2017-Dec-16 03:35 002 17.2
2017-Dec-16 03:30 019 0 gusting 2 17.2
2017-Dec-16 03:20 325 0 gusting 2 17.2
2017-Dec-16 03:15 325 0 gusting 2 17.2
2017-Dec-16 03:10 325 17.2
2017-Dec-16 03:05 325 17.2
2017-Dec-16 03:00 325 17.2